createdAt,value
2019-05-13T00:00:34.425Z,1.40
2019-05-13T00:03:03.907Z,1.50
2019-05-13T00:05:33.867Z,1.30
2019-05-13T00:08:03.756Z,1.50
2019-05-13T00:10:35.005Z,1.57
2019-05-13T00:13:04.620Z,1.53
2019-05-13T00:15:34.317Z,1.77
2019-05-13T00:18:04.112Z,1.60
2019-05-13T00:20:34.102Z,1.73
2019-05-13T00:23:04.264Z,1.50
2019-05-13T00:25:34.069Z,1.53
2019-05-13T00:28:04.313Z,1.40
2019-05-13T00:30:34.475Z,1.70
2019-05-13T00:33:04.180Z,1.20
2019-05-13T00:35:34.067Z,1.23
2019-05-13T00:38:04.034Z,1.47
2019-05-13T00:40:34.100Z,1.40
2019-05-13T00:43:04.047Z,1.43
2019-05-13T00:45:34.169Z,1.50
2019-05-13T00:48:04.458Z,1.73
2019-05-13T00:50:34.376Z,1.50
2019-05-13T00:53:04.330Z,1.67
2019-05-13T00:55:34.625Z,1.40
2019-05-13T00:58:04.450Z,1.57
2019-05-13T01:00:34.397Z,1.80
2019-05-13T01:03:04.233Z,1.70
2019-05-13T01:05:34.159Z,1.70
2019-05-13T01:08:04.212Z,1.90
2019-05-13T01:10:34.580Z,1.50
2019-05-13T01:13:04.885Z,1.50
2019-05-13T01:15:34.667Z,1.50
2019-05-13T01:18:04.334Z,1.60
2019-05-13T01:20:34.384Z,1.43
2019-05-13T01:23:04.708Z,1.83
2019-05-13T01:25:34.157Z,2.00
2019-05-13T01:28:04.499Z,1.90
2019-05-13T01:30:34.475Z,1.90
2019-05-13T01:33:04.651Z,1.93
2019-05-13T01:35:34.478Z,1.80
2019-05-13T01:38:04.648Z,1.60
2019-05-13T01:40:34.989Z,1.70
2019-05-13T01:43:04.330Z,1.70
2019-05-13T01:45:34.038Z,1.67
2019-05-13T01:48:07.012Z,1.90
2019-05-13T01:50:34.382Z,1.90
2019-05-13T01:53:04.193Z,2.00
2019-05-13T01:55:34.349Z,2.00
2019-05-13T01:58:04.492Z,1.90
2019-05-13T02:00:35.266Z,2.07
2019-05-13T02:03:04.910Z,1.93
2019-05-13T02:05:34.297Z,1.87
2019-05-13T02:08:04.463Z,2.00
2019-05-13T02:11:08.447Z,2.00
2019-05-13T02:13:37.507Z,2.07
2019-05-13T02:16:06.598Z,1.97
2019-05-13T02:18:36.060Z,1.90
2019-05-13T02:21:05.659Z,1.90
2019-05-13T02:23:34.927Z,1.93
2019-05-13T02:26:04.744Z,2.07
2019-05-13T02:28:33.868Z,2.17
2019-05-13T02:31:03.113Z,2.17
2019-05-13T02:33:34.034Z,2.33
2019-05-13T02:36:03.492Z,2.67
2019-05-13T02:38:35.314Z,2.60
2019-05-13T02:41:03.792Z,2.20
2019-05-13T02:43:33.478Z,2.43
2019-05-13T02:46:04.200Z,2.27
2019-05-13T02:48:33.730Z,2.57
2019-05-13T02:51:03.690Z,2.50
2019-05-13T02:53:33.877Z,2.87
2019-05-13T02:56:03.663Z,2.93
2019-05-13T02:58:33.736Z,3.30
2019-05-13T03:01:03.838Z,3.00
2019-05-13T03:03:33.219Z,2.83
2019-05-13T03:06:03.192Z,2.97
2019-05-13T03:08:44.294Z,2.73
2019-05-13T03:11:03.660Z,2.80
2019-05-13T03:13:33.304Z,3.00
2019-05-13T03:16:23.776Z,3.10
2019-05-13T03:18:53.210Z,3.13
2019-05-13T03:21:23.222Z,3.30
2019-05-13T03:23:52.790Z,3.50
2019-05-13T03:26:23.474Z,3.07
2019-05-13T03:28:52.957Z,3.43
2019-05-13T03:31:26.174Z,3.37
2019-05-13T03:33:56.053Z,3.37
2019-05-13T03:36:26.062Z,3.63
2019-05-13T03:39:05.561Z,3.90
2019-05-13T03:41:32.740Z,3.30
2019-05-13T03:44:03.787Z,3.47
2019-05-13T03:46:35.823Z,3.70
2019-05-13T03:49:06.649Z,4.13
2019-05-13T03:51:35.994Z,3.70
2019-05-13T03:54:05.342Z,3.80
2019-05-13T03:56:34.784Z,3.83
2019-05-13T03:59:03.956Z,3.70
2019-05-13T04:01:34.023Z,3.90
2019-05-13T04:04:03.493Z,3.60
2019-05-13T04:06:32.795Z,3.87
2019-05-13T04:09:21.019Z,3.60
2019-05-13T04:11:33.222Z,3.77
2019-05-13T04:14:03.195Z,3.90
2019-05-13T04:16:32.853Z,4.10
2019-05-13T04:19:02.718Z,4.03
2019-05-13T04:21:33.810Z,3.87
2019-05-13T04:24:03.985Z,3.90
2019-05-13T04:26:33.471Z,4.07
2019-05-13T04:29:03.295Z,3.70
2019-05-13T04:31:33.477Z,3.90
2019-05-13T04:34:03.154Z,4.20
2019-05-13T04:36:32.238Z,3.97
2019-05-13T04:39:03.228Z,4.10
2019-05-13T04:41:33.412Z,4.10
2019-05-13T04:44:02.923Z,4.10
2019-05-13T04:46:33.035Z,4.10
2019-05-13T04:49:02.445Z,4.00
2019-05-13T04:51:33.393Z,4.20
2019-05-13T04:54:03.084Z,3.73
2019-05-13T04:56:33.094Z,4.03
2019-05-13T04:59:03.206Z,4.00
2019-05-13T05:02:37.435Z,3.70
2019-05-13T05:05:03.325Z,4.20
2019-05-13T05:07:43.992Z,4.23
2019-05-13T05:10:42.911Z,4.20
2019-05-13T05:13:26.810Z,4.17
2019-05-13T05:16:21.831Z,4.30
2019-05-13T05:19:23.669Z,4.03
2019-05-13T05:22:33.247Z,3.70
2019-05-13T05:25:14.599Z,4.30
2019-05-13T05:28:02.138Z,4.20
2019-05-13T05:31:14.593Z,3.50
2019-05-13T05:34:15.201Z,4.40
2019-05-13T05:37:34.472Z,4.00
2019-05-13T05:40:04.652Z,3.70
2019-05-13T05:42:35.602Z,3.67
2019-05-13T05:45:06.012Z,4.00
2019-05-13T05:47:37.568Z,3.83
2019-05-13T05:50:07.281Z,4.03
2019-05-13T05:52:37.633Z,4.30
2019-05-13T05:55:08.121Z,3.87
2019-05-13T05:57:41.955Z,4.00
2019-05-13T06:00:13.137Z,3.83
2019-05-13T06:02:43.824Z,3.00
2019-05-13T06:05:13.329Z,3.67
2019-05-13T06:07:42.847Z,3.47
2019-05-13T06:10:12.512Z,3.23
2019-05-13T06:12:42.408Z,3.27
2019-05-13T06:15:12.413Z,3.27
2019-05-13T06:17:41.606Z,3.50
2019-05-13T06:20:13.215Z,3.50
2019-05-13T06:22:42.618Z,3.40
2019-05-13T06:25:14.514Z,4.03
2019-05-13T06:27:42.694Z,3.70
2019-05-13T06:30:12.734Z,3.53
2019-05-13T06:32:42.115Z,3.20
2019-05-13T06:35:11.694Z,3.47
2019-05-13T06:37:41.567Z,3.67
2019-05-13T06:40:12.332Z,3.60
2019-05-13T06:42:41.775Z,3.27
2019-05-13T06:45:12.457Z,3.40
2019-05-13T06:47:41.694Z,4.00
2019-05-13T06:50:13.210Z,2.90
2019-05-13T06:52:42.635Z,3.07
2019-05-13T06:55:12.198Z,2.90
2019-05-13T06:57:42.255Z,2.20
2019-05-13T07:00:12.567Z,2.23
2019-05-13T07:02:42.686Z,2.00
2019-05-13T07:05:12.497Z,1.80
2019-05-13T07:07:42.369Z,1.90
2019-05-13T07:10:12.757Z,2.00
2019-05-13T07:12:42.227Z,2.90
2019-05-13T07:15:31.982Z,2.20
2019-05-13T07:18:02.271Z,1.90
2019-05-13T07:20:32.311Z,2.00
2019-05-13T07:23:01.800Z,2.03
2019-05-13T07:25:32.596Z,2.00
2019-05-13T07:28:02.314Z,1.93
2019-05-13T07:30:42.314Z,2.00
2019-05-13T07:33:12.587Z,1.90
2019-05-13T07:35:45.154Z,2.17
2019-05-13T07:38:13.482Z,2.10
2019-05-13T07:40:42.566Z,1.87
2019-05-13T07:43:12.571Z,1.90
2019-05-13T07:45:42.525Z,2.13
2019-05-13T07:48:20.605Z,1.97
2019-05-13T07:50:53.693Z,2.40
2019-05-13T07:53:18.679Z,1.93
2019-05-13T07:55:44.789Z,2.20
2019-05-13T07:58:13.944Z,2.10
2019-05-13T08:00:42.922Z,2.63
2019-05-13T08:03:12.628Z,2.60
2019-05-13T08:05:41.979Z,1.90
2019-05-13T08:08:11.906Z,2.23
2019-05-13T08:10:41.655Z,2.17
2019-05-13T08:13:11.842Z,1.83
2019-05-13T08:15:42.313Z,2.10
2019-05-13T08:18:31.880Z,2.13
2019-05-13T08:21:01.995Z,1.50
2019-05-13T08:23:32.374Z,1.47
2019-05-13T08:26:02.522Z,1.40
2019-05-13T08:28:32.492Z,1.97
2019-05-13T08:31:02.203Z,1.60
2019-05-13T08:33:32.242Z,1.77
2019-05-13T08:36:01.867Z,1.33
2019-05-13T08:38:31.926Z,1.60
2019-05-13T08:41:02.110Z,1.60
2019-05-13T08:43:31.804Z,1.70
2019-05-13T08:46:02.517Z,2.00
2019-05-13T08:48:32.367Z,1.77
2019-05-13T08:51:03.052Z,1.60
2019-05-13T08:53:34.243Z,1.40
2019-05-13T08:56:03.337Z,1.50
2019-05-13T08:58:32.484Z,1.90
2019-05-13T09:01:02.369Z,1.43
2019-05-13T09:06:03.109Z,1.60
2019-05-13T09:08:32.637Z,2.00
2019-05-13T09:11:02.254Z,1.60
2019-05-13T09:13:32.994Z,1.53
2019-05-13T09:16:02.737Z,1.70
2019-05-13T09:18:32.295Z,1.60
2019-05-13T09:21:02.747Z,1.50
2019-05-13T09:23:32.061Z,1.37
2019-05-13T09:26:02.547Z,1.40
2019-05-13T09:28:32.632Z,1.20
2019-05-13T09:31:02.298Z,1.60
2019-05-13T09:33:32.664Z,1.60
2019-05-13T09:36:02.548Z,1.40
2019-05-13T09:38:32.626Z,1.17
2019-05-13T09:41:02.239Z,1.10
2019-05-13T09:43:31.902Z,1.50
2019-05-13T09:46:01.851Z,1.20
2019-05-13T09:48:32.002Z,1.40
2019-05-13T09:51:02.623Z,1.37
2019-05-13T09:53:32.534Z,1.57
2019-05-13T09:56:02.510Z,1.20
2019-05-13T09:58:33.152Z,1.40
2019-05-13T10:01:02.660Z,1.40
2019-05-13T10:03:33.146Z,1.33
2019-05-13T10:06:02.935Z,1.73
2019-05-13T10:08:32.804Z,1.67
2019-05-13T10:11:02.475Z,1.27
2019-05-13T10:13:32.120Z,1.43
2019-05-13T10:16:22.074Z,1.30
2019-05-13T10:21:22.525Z,1.97
2019-05-13T10:23:52.338Z,1.60
2019-05-13T10:26:22.604Z,1.70
2019-05-13T10:28:52.140Z,1.70
2019-05-13T10:31:22.102Z,1.50
2019-05-13T10:33:51.618Z,1.47
2019-05-13T10:36:22.285Z,1.27
2019-05-13T10:38:52.642Z,1.27
2019-05-13T10:41:22.345Z,1.10
2019-05-13T10:43:52.036Z,1.10
2019-05-13T10:46:22.274Z,0.97
2019-05-13T10:48:52.629Z,1.30
2019-05-13T10:51:22.559Z,1.10
2019-05-13T10:53:53.593Z,1.20
2019-05-13T10:56:22.531Z,1.30
2019-05-13T10:58:53.454Z,1.77
2019-05-13T11:01:22.752Z,1.80
2019-05-13T11:03:52.577Z,1.47
2019-05-13T11:06:22.177Z,1.57
2019-05-13T11:11:22.403Z,1.80
2019-05-13T11:13:58.332Z,2.00
2019-05-13T11:16:22.738Z,2.13
2019-05-13T11:18:52.118Z,2.27
2019-05-13T11:21:22.372Z,2.00
2019-05-13T11:23:51.817Z,2.60
2019-05-13T11:26:22.041Z,2.20
2019-05-13T11:28:52.293Z,1.87
2019-05-13T11:31:22.414Z,2.20
2019-05-13T11:33:52.337Z,1.50
2019-05-13T11:36:23.438Z,2.13
2019-05-13T11:38:53.270Z,1.77
2019-05-13T11:41:23.157Z,1.60
2019-05-13T11:44:11.040Z,1.40
2019-05-13T11:46:23.311Z,1.83
2019-05-13T11:48:52.730Z,1.73
2019-05-13T11:51:24.124Z,1.70
2019-05-13T11:53:53.083Z,1.90
2019-05-13T11:56:23.146Z,1.77
2019-05-13T11:58:53.299Z,1.60
2019-05-13T12:01:23.178Z,1.53
2019-05-13T12:03:53.190Z,1.80
2019-05-13T12:06:23.507Z,1.40
2019-05-13T12:08:55.279Z,1.70
2019-05-13T12:11:24.064Z,1.93
2019-05-13T12:13:53.151Z,1.50
2019-05-13T12:16:22.906Z,1.23
2019-05-13T12:18:52.836Z,1.47
2019-05-13T12:21:22.178Z,1.40
2019-05-13T12:23:52.737Z,1.73
2019-05-13T12:26:23.791Z,1.47
2019-05-13T12:28:53.955Z,1.60
2019-05-13T12:31:23.310Z,1.73
2019-05-13T12:33:52.714Z,1.80
2019-05-13T12:36:23.519Z,1.53
2019-05-13T12:39:14.291Z,1.50
2019-05-13T12:41:43.141Z,1.37
2019-05-13T12:44:13.142Z,1.30
2019-05-13T12:46:49.689Z,1.17
2019-05-13T12:49:14.541Z,1.30
2019-05-13T12:51:44.257Z,1.40
2019-05-13T12:54:13.924Z,1.43
2019-05-13T12:56:43.606Z,1.77
2019-05-13T12:59:13.548Z,1.20
2019-05-13T13:01:42.929Z,1.27
2019-05-13T13:04:17.325Z,1.27
2019-05-13T13:06:46.498Z,1.80
2019-05-13T13:09:15.717Z,1.50
2019-05-13T13:11:44.895Z,1.47
2019-05-13T13:14:15.637Z,1.57
2019-05-13T13:16:44.822Z,1.87
2019-05-13T13:19:15.114Z,1.50
2019-05-13T13:21:44.427Z,1.47
2019-05-13T13:24:13.896Z,1.67
2019-05-13T13:26:43.166Z,2.07
2019-05-13T13:29:12.341Z,1.80
2019-05-13T13:31:43.281Z,1.37
2019-05-13T13:34:18.209Z,2.17
2019-05-13T13:36:46.124Z,1.70
2019-05-13T13:39:15.285Z,1.50
2019-05-13T13:41:44.619Z,1.47
2019-05-13T13:44:13.684Z,1.83
2019-05-13T13:46:49.059Z,1.70
2019-05-13T13:49:13.704Z,1.93
2019-05-13T13:51:44.705Z,1.67
2019-05-13T13:54:13.737Z,1.63
2019-05-13T13:56:44.477Z,1.90
2019-05-13T13:59:14.266Z,1.93
2019-05-13T14:01:43.602Z,1.50
2019-05-13T14:04:16.471Z,1.90
2019-05-13T14:06:25.607Z,1.43
2019-05-13T14:06:28.552Z,1.43
2019-05-13T14:06:32.631Z,1.57
2019-05-13T14:09:14.774Z,2.30
2019-05-13T14:11:43.894Z,1.30
2019-05-13T14:14:13.005Z,1.67
2019-05-13T14:16:46.135Z,1.70
2019-05-13T14:19:13.282Z,2.07
2019-05-13T14:21:42.308Z,1.57
2019-05-13T14:24:12.241Z,1.50
2019-05-13T14:26:43.443Z,1.87
2019-05-13T14:29:12.449Z,1.43
2019-05-13T14:31:41.818Z,1.87
2019-05-13T14:34:11.440Z,1.87
2019-05-13T14:36:40.933Z,1.70
2019-05-13T14:39:12.065Z,1.20
2019-05-13T14:41:46.828Z,1.73
2019-05-13T14:44:16.003Z,1.50
2019-05-13T14:46:47.910Z,1.60
2019-05-13T14:49:16.103Z,1.60
2019-05-13T14:51:45.169Z,1.60
2019-05-13T14:54:16.695Z,1.50
2019-05-13T14:56:45.938Z,1.73
2019-05-13T14:59:15.407Z,1.63
2019-05-13T15:01:44.473Z,1.50
2019-05-13T15:04:13.823Z,1.80
2019-05-13T15:06:42.978Z,2.17
2019-05-13T15:09:12.710Z,1.70
2019-05-13T15:11:42.177Z,1.57
2019-05-13T15:14:11.736Z,1.83
2019-05-13T15:16:42.488Z,1.90
2019-05-13T15:19:12.230Z,1.60
2019-05-13T15:21:41.455Z,1.50
2019-05-13T15:24:12.367Z,1.50
2019-05-13T15:26:42.278Z,1.80
2019-05-13T15:29:11.883Z,1.97
2019-05-13T15:31:42.289Z,1.77
2019-05-13T15:34:11.762Z,1.70
2019-05-13T15:36:41.902Z,2.00
2019-05-13T15:39:11.995Z,1.97
2019-05-13T15:41:41.898Z,1.60
2019-05-13T15:44:11.463Z,1.80
2019-05-13T15:46:41.764Z,1.60
2019-05-13T15:49:12.371Z,1.47
2019-05-13T15:51:42.337Z,1.63
2019-05-13T15:54:15.284Z,1.50
2019-05-13T15:56:42.324Z,1.60
2019-05-13T15:59:12.586Z,1.30
2019-05-13T16:01:41.857Z,1.40
2019-05-13T16:04:13.561Z,1.47
2019-05-13T16:06:42.072Z,1.60
2019-05-13T16:09:11.816Z,1.20
2019-05-13T16:11:41.554Z,1.33
2019-05-13T16:14:11.723Z,1.30
2019-05-13T16:16:41.918Z,1.50
2019-05-13T16:19:11.195Z,1.70
2019-05-13T16:21:41.607Z,2.07
2019-05-13T16:24:11.978Z,1.60
2019-05-13T16:26:42.637Z,1.17
2019-05-13T16:29:12.645Z,1.47
2019-05-13T16:31:42.143Z,1.50
2019-05-13T16:34:13.567Z,1.50
2019-05-13T16:36:42.930Z,1.90
2019-05-13T16:39:12.578Z,1.67
2019-05-13T16:41:42.633Z,1.70
2019-05-13T16:44:12.198Z,1.60
2019-05-13T16:46:42.381Z,1.60
2019-05-13T16:49:12.229Z,1.50
2019-05-13T16:51:42.591Z,1.80
2019-05-13T16:54:11.989Z,1.43
2019-05-13T16:56:42.042Z,1.43
2019-05-13T16:59:11.378Z,1.10
2019-05-13T17:01:42.026Z,1.53
2019-05-13T17:04:12.622Z,1.40
2019-05-13T17:06:41.976Z,1.23
2019-05-13T17:09:11.522Z,1.60
2019-05-13T17:11:41.489Z,1.60
2019-05-13T17:14:11.001Z,1.20
2019-05-13T17:16:41.367Z,1.13
2019-05-13T17:19:12.048Z,1.20
2019-05-13T17:21:41.485Z,1.30
2019-05-13T17:24:12.385Z,1.60
2019-05-13T17:26:41.887Z,1.27
2019-05-13T17:29:12.066Z,1.33
2019-05-13T17:31:41.793Z,1.90
2019-05-13T17:34:12.099Z,1.40
2019-05-13T17:36:42.021Z,1.40
2019-05-13T17:39:12.469Z,1.20
2019-05-13T17:41:45.177Z,1.50
2019-05-13T17:44:14.180Z,1.27
2019-05-13T17:46:43.238Z,1.20
2019-05-13T17:49:12.574Z,1.00
2019-05-13T17:51:42.563Z,1.40
2019-05-13T17:54:12.086Z,1.50
2019-05-13T17:56:41.335Z,1.10
2019-05-13T17:59:11.481Z,1.93
2019-05-13T18:01:41.423Z,1.57
2019-05-13T18:04:11.735Z,1.30
2019-05-13T18:06:41.736Z,1.30
2019-05-13T18:09:12.063Z,1.17
2019-05-13T18:11:41.869Z,1.47
2019-05-13T18:14:11.540Z,1.40
2019-05-13T18:16:42.009Z,1.13
2019-05-13T18:19:11.965Z,1.20
2019-05-13T18:21:42.465Z,1.50
2019-05-13T18:24:12.091Z,1.60
2019-05-13T18:26:42.038Z,0.97
2019-05-13T18:29:12.677Z,1.33
2019-05-13T18:31:42.360Z,1.63
2019-05-13T18:34:12.257Z,1.40
2019-05-13T18:36:42.540Z,1.20
2019-05-13T18:39:12.447Z,1.10
2019-05-13T18:41:42.137Z,1.00
2019-05-13T18:44:12.286Z,1.07
2019-05-13T18:46:41.954Z,1.13
2019-05-13T18:49:12.021Z,1.00
2019-05-13T18:51:42.242Z,1.10
2019-05-13T18:54:12.190Z,1.10
2019-05-13T18:56:41.753Z,1.00
2019-05-13T18:59:12.559Z,1.13
2019-05-13T19:01:42.881Z,0.93
2019-05-13T19:04:12.294Z,1.00
2019-05-13T19:06:42.398Z,1.00
2019-05-13T19:09:12.795Z,1.40
2019-05-13T19:11:42.695Z,1.20
2019-05-13T19:14:13.564Z,1.27
2019-05-13T19:16:42.674Z,1.23
2019-05-13T19:19:15.703Z,1.10
2019-05-13T19:21:42.712Z,1.20
2019-05-13T19:24:13.370Z,1.10
2019-05-13T19:26:44.589Z,1.00
2019-05-13T19:29:13.912Z,1.60
2019-05-13T19:31:43.120Z,1.20
2019-05-13T19:34:12.787Z,1.10
2019-05-13T19:36:41.985Z,1.30
2019-05-13T19:39:11.508Z,1.20
2019-05-13T19:41:42.314Z,1.50
2019-05-13T19:44:11.714Z,1.50
2019-05-13T19:46:42.165Z,1.40
2019-05-13T19:49:13.688Z,1.30
2019-05-13T19:51:42.709Z,1.00
2019-05-13T19:54:11.890Z,1.23
2019-05-13T19:56:41.129Z,1.00
2019-05-13T19:59:12.236Z,1.07
2019-05-13T20:01:42.331Z,1.20
2019-05-13T20:04:11.599Z,1.30
2019-05-13T20:06:41.448Z,1.40
2019-05-13T20:09:10.806Z,1.23
2019-05-13T20:11:41.982Z,1.03
2019-05-13T20:14:12.193Z,1.20
2019-05-13T20:16:41.827Z,1.20
2019-05-13T20:19:11.837Z,0.97
2019-05-13T20:21:42.565Z,1.03
2019-05-13T20:24:12.016Z,1.07
2019-05-13T20:26:41.503Z,0.93
2019-05-13T20:29:12.325Z,1.10
2019-05-13T20:31:41.848Z,0.90
2019-05-13T20:34:11.905Z,1.20
2019-05-13T20:36:42.305Z,0.70
2019-05-13T20:39:11.745Z,1.00
2019-05-13T20:41:41.428Z,0.90
2019-05-13T20:44:10.740Z,0.80
2019-05-13T20:46:42.256Z,1.10
2019-05-13T20:49:12.065Z,1.07
2019-05-13T20:51:41.770Z,1.10
2019-05-13T20:54:11.389Z,1.10
2019-05-13T20:56:42.392Z,1.13
2019-05-13T20:59:11.728Z,1.00
2019-05-13T21:01:41.901Z,1.00
2019-05-13T21:04:12.410Z,1.10
2019-05-13T21:06:42.355Z,0.90
2019-05-13T21:09:16.373Z,1.10
2019-05-13T21:11:42.233Z,1.20
2019-05-13T21:14:11.545Z,1.07
2019-05-13T21:16:41.657Z,0.87
2019-05-13T21:19:14.141Z,1.30
2019-05-13T21:21:43.273Z,1.20
2019-05-13T21:24:12.371Z,1.10
2019-05-13T21:26:41.982Z,1.47
2019-05-13T21:29:11.235Z,1.20
2019-05-13T21:31:41.435Z,1.40
2019-05-13T21:34:11.923Z,1.20
2019-05-13T21:37:02.397Z,1.63
2019-05-13T21:39:31.991Z,1.20
2019-05-13T21:42:02.418Z,1.57
2019-05-13T21:44:32.634Z,1.60
2019-05-13T21:47:02.475Z,1.70
2019-05-13T21:49:32.029Z,1.50
2019-05-13T21:52:01.517Z,1.50
2019-05-13T21:54:33.240Z,1.50
2019-05-13T21:57:02.274Z,1.57
2019-05-13T21:59:32.118Z,1.40
2019-05-13T22:02:01.975Z,1.50
2019-05-13T22:04:31.109Z,1.80
2019-05-13T22:07:01.469Z,1.40
2019-05-13T22:09:31.756Z,1.60
2019-05-13T22:12:01.935Z,1.77
2019-05-13T22:14:31.968Z,1.83
2019-05-13T22:17:01.677Z,1.60
2019-05-13T22:19:31.603Z,1.90
2019-05-13T22:22:02.275Z,1.70
2019-05-13T22:24:31.601Z,2.20
2019-05-13T22:27:01.897Z,1.90
2019-05-13T22:29:32.162Z,2.20
2019-05-13T22:32:01.968Z,2.10
2019-05-13T22:34:32.048Z,1.70
2019-05-13T22:37:02.444Z,2.10
2019-05-13T22:39:34.604Z,2.30
2019-05-13T22:42:02.831Z,2.20
2019-05-13T22:44:32.449Z,2.30
2019-05-13T22:47:02.594Z,2.00
2019-05-13T22:49:51.134Z,2.30
2019-05-13T22:52:21.797Z,2.17
2019-05-13T22:54:51.880Z,2.23
2019-05-13T22:57:21.932Z,2.60
2019-05-13T22:59:52.030Z,2.20
2019-05-13T23:02:21.938Z,2.80
2019-05-13T23:04:51.476Z,2.30
2019-05-13T23:07:39.563Z,2.70
2019-05-13T23:10:09.027Z,2.47
2019-05-13T23:12:38.132Z,2.10
2019-05-13T23:15:07.643Z,2.57
2019-05-13T23:17:36.841Z,2.27
2019-05-13T23:20:06.324Z,2.23
2019-05-13T23:22:38.311Z,2.43
2019-05-13T23:25:07.505Z,2.40
2019-05-13T23:27:36.501Z,2.30
2019-05-13T23:30:07.309Z,2.50
2019-05-13T23:32:36.315Z,2.40
2019-05-13T23:35:05.517Z,2.43
2019-05-13T23:37:34.657Z,2.17
2019-05-13T23:40:04.281Z,2.20
2019-05-13T23:42:33.439Z,2.73
2019-05-13T23:45:02.483Z,2.30
2019-05-13T23:47:31.481Z,2.20
2019-05-13T23:50:01.850Z,2.70
2019-05-13T23:52:31.538Z,2.70
2019-05-13T23:55:02.524Z,2.07
2019-05-13T23:57:31.654Z,2.70
